Time;durP1;ratioP1;P1;durP2;ratioP2;P2;SDS_P1;SDS_P2;PMS_P1;PMS_P2;Temp;Humidity;BMP_temperature;BMP_pressure;BME280_temperature;BME280_humidity;BME280_pressure;Samples;Min_cycle;Max_cycle;Signal;HPM_P1;HPM_P2
2021/03/09 00:00:21;;;;;;;3.25;1.95;;;23.00;48.60;;;;;;5074495;28;20097;-42
2021/03/09 00:02:47;;;;;;;2.65;1.80;;;23.00;48.60;;;;;;5075227;28;20044;-43
2021/03/09 00:05:14;;;;;;;2.85;2.03;;;23.00;48.70;;;;;;5076141;28;20048;-43
2021/03/09 00:07:42;;;;;;;2.05;1.75;;;23.00;48.60;;;;;;5074492;28;20386;-43
2021/03/09 00:10:10;;;;;;;3.05;1.58;;;23.00;48.60;;;;;;5075552;28;20048;-43
2021/03/09 00:12:37;;;;;;;2.00;1.67;;;23.00;48.70;;;;;;5075165;28;20048;-43
2021/03/09 00:15:04;;;;;;;2.30;1.80;;;23.00;48.70;;;;;;5074411;28;20052;-43
2021/03/09 00:17:32;;;;;;;2.17;1.75;;;23.00;48.70;;;;;;5075087;28;20424;-43
2021/03/09 00:20:00;;;;;;;2.42;2.05;;;23.00;48.70;;;;;;5074073;28;20052;-43
2021/03/09 00:22:27;;;;;;;2.58;1.92;;;23.00;48.70;;;;;;5074284;28;20052;-43
2021/03/09 00:24:54;;;;;;;2.80;2.00;;;23.00;48.70;;;;;;5075237;28;20045;-43
2021/03/09 00:27:20;;;;;;;2.70;1.85;;;22.90;48.60;;;;;;5074896;28;20059;-45
2021/03/09 00:29:47;;;;;;;2.65;1.73;;;22.90;49.20;;;;;;5074240;28;20106;-48
2021/03/09 00:32:14;;;;;;;2.58;1.67;;;22.90;48.60;;;;;;5073870;28;20044;-45
2021/03/09 00:34:41;;;;;;;2.20;1.73;;;23.00;48.70;;;;;;5074738;28;20053;-48
2021/03/09 00:37:07;;;;;;;2.25;1.77;;;23.00;48.70;;;;;;5073729;28;20503;-43
2021/03/09 00:39:34;;;;;;;3.35;2.20;;;22.90;48.70;;;;;;5073333;28;20465;-43
2021/03/09 00:42:01;;;;;;;2.88;2.10;;;22.90;48.60;;;;;;5075131;28;20060;-43
2021/03/09 00:44:27;;;;;;;2.05;1.70;;;22.90;48.70;;;;;;5074509;28;20040;-44
2021/03/09 00:46:54;;;;;;;2.50;2.00;;;22.90;48.60;;;;;;5072870;28;20044;-45
2021/03/09 00:49:21;;;;;;;2.42;1.63;;;22.90;48.70;;;;;;5074748;28;20110;-45
2021/03/09 00:51:47;;;;;;;2.05;1.75;;;22.90;48.70;;;;;;5073630;28;20556;-47
2021/03/09 00:54:14;;;;;;;2.50;1.80;;;22.90;48.70;;;;;;5074621;28;20385;-49
2021/03/09 00:56:41;;;;;;;2.47;2.05;;;22.90;48.70;;;;;;5074584;28;20048;-48
2021/03/09 00:59:07;;;;;;;2.90;2.08;;;22.90;48.70;;;;;;5074529;28;20126;-46
2021/03/09 01:01:34;;;;;;;1.60;1.42;;;22.90;48.70;;;;;;5072127;28;20044;-44
2021/03/09 01:04:01;;;;;;;2.10;1.73;;;22.90;48.70;;;;;;5072940;28;20094;-47
2021/03/09 01:06:28;;;;;;;2.25;2.00;;;22.90;48.70;;;;;;5074272;28;20146;-46
2021/03/09 01:08:55;;;;;;;2.50;1.67;;;22.90;48.70;;;;;;5072411;28;20101;-43
2021/03/09 01:11:21;;;;;;;2.45;1.90;;;22.90;48.70;;;;;;5074319;28;20071;-44
2021/03/09 01:13:48;;;;;;;2.33;1.80;;;22.90;48.70;;;;;;5074299;28;20070;-48
2021/03/09 01:16:15;;;;;;;2.47;2.08;;;22.90;48.70;;;;;;5073131;28;20048;-44
2021/03/09 01:18:41;;;;;;;2.55;2.08;;;22.90;48.70;;;;;;5074164;28;20063;-46
2021/03/09 01:21:08;;;;;;;2.47;1.98;;;22.90;48.70;;;;;;5074839;28;20057;-43
2021/03/09 01:23:35;;;;;;;2.28;1.60;;;22.90;48.70;;;;;;5072933;28;20090;-46
2021/03/09 01:26:01;;;;;;;2.55;1.85;;;22.90;48.70;;;;;;5056022;28;20044;-44
2021/03/09 01:28:28;;;;;;;2.35;1.70;;;22.90;48.70;;;;;;5074228;28;20044;-44
2021/03/09 01:30:55;;;;;;;2.38;1.88;;;22.90;48.70;;;;;;5073238;28;20056;-48
2021/03/09 01:33:22;;;;;;;2.55;1.70;;;22.90;48.70;;;;;;5073876;28;20048;-47
2021/03/09 01:35:48;;;;;;;2.97;2.00;;;22.80;48.70;;;;;;5073395;28;20078;-45
2021/03/09 01:38:15;;;;;;;2.38;2.05;;;22.90;48.70;;;;;;5072702;28;20048;-47
2021/03/09 01:40:42;;;;;;;2.35;1.95;;;22.80;48.70;;;;;;5073471;28;20098;-44
2021/03/09 01:43:08;;;;;;;2.60;1.95;;;22.80;48.70;;;;;;5073607;28;20090;-44
2021/03/09 01:45:35;;;;;;;1.85;1.65;;;22.80;48.70;;;;;;5072881;28;20384;-46
2021/03/09 01:48:05;;;;;;;2.83;1.95;;;22.90;48.70;;;;;;5073883;28;20131;-43
2021/03/09 01:50:41;;;;;;;2.65;2.03;;;22.80;48.70;;;;;;5073956;28;20506;-44
2021/03/09 01:53:08;;;;;;;2.03;1.67;;;22.80;48.70;;;;;;5071314;28;20052;-45
2021/03/09 01:55:35;;;;;;;2.95;1.90;;;22.80;48.70;;;;;;5072294;28;20055;-43
2021/03/09 01:58:10;;;;;;;2.70;2.00;;;22.80;48.70;;;;;;5071837;28;20059;-44
2021/03/09 02:00:39;;;;;;;3.28;2.10;;;22.80;48.70;;;;;;5072583;28;20056;-46
2021/03/09 02:03:06;;;;;;;2.28;1.90;;;22.80;48.70;;;;;;5072939;28;20044;-43
2021/03/09 02:05:34;;;;;;;2.63;2.20;;;22.80;48.70;;;;;;5073018;28;20040;-43
2021/03/09 02:08:01;;;;;;;2.72;1.90;;;22.80;48.70;;;;;;5072631;28;20051;-44
2021/03/09 02:10:28;;;;;;;2.47;1.90;;;22.80;48.70;;;;;;5073377;28;20443;-44
2021/03/09 02:13:43;;;;;;;3.25;2.10;;;22.80;48.70;;;;;;5072993;28;20056;-45
2021/03/09 02:16:39;;;;;;;2.38;2.00;;;22.80;48.70;;;;;;5072344;28;20056;-47
2021/03/09 02:19:25;;;;;;;2.42;2.05;;;22.80;48.70;;;;;;5073006;28;20048;-43
2021/03/09 02:22:29;;;;;;;2.38;1.92;;;22.80;48.70;;;;;;5073550;28;20120;-43
2021/03/09 02:25:15;;;;;;;;;;;22.80;48.80;;;;;;5073569;28;20127;-44
2021/03/09 02:27:50;;;;;;;;;;;22.80;48.70;;;;;;5073629;28;19920;-47
2021/03/09 02:30:21;;;;;;;2.65;2.03;;;22.80;48.70;;;;;;5072699;28;20380;-43
2021/03/09 02:33:24;;;;;;;2.92;2.10;;;22.80;48.80;;;;;;5072188;28;20044;-43
2021/03/09 02:36:03;;;;;;;3.00;2.13;;;22.80;49.40;;;;;;5071776;28;20048;-45
2021/03/09 02:38:43;;;;;;;2.20;1.77;;;22.80;48.80;;;;;;5072159;28;20052;-43
2021/03/09 02:41:13;;;;;;;2.30;2.00;;;22.70;48.80;;;;;;5072870;28;20044;-43
2021/03/09 02:43:45;;;;;;;2.45;1.70;;;22.70;48.70;;;;;;5072661;28;20045;-44
2021/03/09 02:46:14;;;;;;;2.92;2.20;;;22.80;48.80;;;;;;5072120;28;20056;-45
2021/03/09 02:48:43;;;;;;;2.83;2.08;;;22.70;48.70;;;;;;5072670;28;20095;-44
2021/03/09 02:51:11;;;;;;;3.00;2.03;;;22.70;48.70;;;;;;5072614;28;20087;-43
2021/03/09 02:53:44;;;;;;;3.22;2.25;;;22.80;48.80;;;;;;5070941;28;20052;-43
2021/03/09 02:56:12;;;;;;;2.60;1.95;;;22.70;48.70;;;;;;5073007;28;20057;-44
2021/03/09 02:58:43;;;;;;;3.33;2.30;;;22.80;48.80;;;;;;5073194;28;20511;-43
2021/03/09 03:01:11;;;;;;;2.63;2.08;;;22.70;48.70;;;;;;5072599;28;20055;-47
2021/03/09 03:03:43;;;;;;;2.75;2.15;;;22.70;48.70;;;;;;5071731;28;20048;-43
2021/03/09 03:06:11;;;;;;;2.65;2.33;;;22.70;48.70;;;;;;5072671;28;20117;-44
2021/03/09 03:08:42;;;;;;;3.00;2.20;;;22.70;48.70;;;;;;5071812;28;20102;-43
2021/03/09 03:11:11;;;;;;;2.22;1.88;;;22.70;48.70;;;;;;5076307;28;20098;-44
2021/03/09 03:13:40;;;;;;;2.80;2.13;;;22.80;48.80;;;;;;5076247;28;20507;-44
2021/03/09 03:16:11;;;;;;;2.28;1.92;;;22.70;48.70;;;;;;5076273;28;20060;-46
2021/03/09 03:18:43;;;;;;;3.85;2.75;;;22.70;48.70;;;;;;5075483;28;20079;-43
2021/03/09 03:21:12;;;;;;;2.67;2.22;;;22.70;48.70;;;;;;5076134;28;20484;-43
2021/03/09 03:23:41;;;;;;;2.47;2.10;;;22.70;48.70;;;;;;5075205;28;20090;-43
2021/03/09 03:26:10;;;;;;;2.30;1.83;;;22.70;48.70;;;;;;5076020;28;20048;-43
2021/03/09 03:28:44;;;;;;;2.70;2.22;;;22.70;48.70;;;;;;5075927;28;20088;-46
2021/03/09 03:31:11;;;;;;;4.07;2.40;;;22.70;48.70;;;;;;5075888;28;20052;-43
2021/03/09 03:33:38;;;;;;;2.95;2.30;;;22.70;48.70;;;;;;5075476;28;20044;-46
2021/03/09 03:36:06;;;;;;;2.58;2.03;;;22.70;48.70;;;;;;5076000;28;20105;-44
2021/03/09 03:38:34;;;;;;;2.47;1.80;;;22.70;48.70;;;;;;5074761;28;20060;-43
2021/03/09 03:41:02;;;;;;;2.40;2.00;;;22.70;48.70;;;;;;5075785;28;20055;-44
2021/03/09 03:43:30;;;;;;;2.95;2.13;;;22.70;48.70;;;;;;5075658;28;20040;-44
2021/03/09 03:45:57;;;;;;;2.83;2.10;;;22.70;48.70;;;;;;5074800;28;20045;-43
2021/03/09 03:48:25;;;;;;;3.13;2.00;;;22.70;48.70;;;;;;5075193;28;20464;-44
2021/03/09 03:50:55;;;;;;;3.20;2.35;;;22.70;48.70;;;;;;5076431;28;20052;-46
2021/03/09 03:53:28;;;;;;;2.90;2.33;;;22.70;48.70;;;;;;5075855;28;20048;-44
2021/03/09 03:56:20;;;;;;;3.10;2.40;;;22.70;48.70;;;;;;5074692;28;20048;-44
2021/03/09 03:59:16;;;;;;;2.60;2.05;;;22.70;48.70;;;;;;5075790;28;20052;-44
2021/03/09 04:01:44;;;;;;;2.72;1.77;;;22.70;48.70;;;;;;5075445;28;20057;-43
2021/03/09 04:04:13;;;;;;;3.22;2.00;;;22.70;48.70;;;;;;5074632;28;20040;-43
2021/03/09 04:06:46;;;;;;;2.85;2.20;;;22.70;48.70;;;;;;5075476;28;20541;-44
2021/03/09 04:09:14;;;;;;;2.45;2.13;;;22.70;48.70;;;;;;5074564;28;20056;-43
2021/03/09 04:11:42;;;;;;;3.38;2.38;;;22.70;48.70;;;;;;5075235;28;20040;-43
2021/03/09 04:14:12;;;;;;;2.83;2.15;;;22.70;48.70;;;;;;5075725;28;20126;-43
2021/03/09 04:16:41;;;;;;;2.25;1.85;;;22.70;48.70;;;;;;5075446;28;20052;-43
2021/03/09 04:19:11;;;;;;;2.70;2.15;;;22.70;48.70;;;;;;5074687;28;20048;-43
2021/03/09 04:21:39;;;;;;;3.03;2.50;;;22.70;48.70;;;;;;5075017;28;20097;-43
2021/03/09 04:24:06;;;;;;;3.47;2.25;;;22.70;48.70;;;;;;5074464;28;20060;-42
2021/03/09 04:26:35;;;;;;;2.67;2.17;;;22.70;48.70;;;;;;5074947;28;20094;-43
2021/03/09 04:29:02;;;;;;;2.55;2.30;;;22.70;48.70;;;;;;5075251;28;20415;-44
2021/03/09 04:31:29;;;;;;;2.53;2.10;;;22.70;48.70;;;;;;5074657;28;20484;-45
2021/03/09 04:33:56;;;;;;;3.63;2.30;;;22.70;48.70;;;;;;5074072;28;20569;-43
2021/03/09 04:36:25;;;;;;;2.90;2.20;;;22.60;48.70;;;;;;5074551;28;20135;-43
2021/03/09 04:38:52;;;;;;;3.00;2.50;;;22.70;48.70;;;;;;5074021;28;20504;-46
2021/03/09 04:41:19;;;;;;;3.08;2.30;;;22.70;48.70;;;;;;5074507;28;20097;-45
2021/03/09 04:43:46;;;;;;;2.65;2.10;;;22.70;48.70;;;;;;5074458;28;20080;-47
2021/03/09 04:46:13;;;;;;;2.53;2.30;;;22.60;48.60;;;;;;5074571;28;20056;-43
2021/03/09 04:48:41;;;;;;;2.72;2.28;;;22.60;48.60;;;;;;5073741;28;20098;-45
2021/03/09 04:51:10;;;;;;;2.80;2.38;;;22.60;48.60;;;;;;5074741;28;20167;-44
2021/03/09 04:53:40;;;;;;;2.30;1.98;;;22.60;48.60;;;;;;5074708;28;20048;-46
2021/03/09 04:56:08;;;;;;;2.90;2.38;;;22.60;48.60;;;;;;5073582;28;20048;-48
2021/03/09 04:58:35;;;;;;;2.80;2.20;;;22.60;48.60;;;;;;5074597;28;20055;-44
2021/03/09 05:01:02;;;;;;;2.92;2.13;;;22.60;48.60;;;;;;5074114;28;20044;-45
2021/03/09 05:03:29;;;;;;;2.80;2.20;;;22.60;48.60;;;;;;5073713;28;20455;-48
2021/03/09 05:05:55;;;;;;;2.30;1.92;;;22.70;48.70;;;;;;5074476;28;20044;-44
2021/03/09 05:08:22;;;;;;;2.60;2.08;;;22.60;48.60;;;;;;5073128;28;20044;-47
2021/03/09 05:10:48;;;;;;;2.90;2.50;;;22.60;48.60;;;;;;5073284;28;20040;-43
2021/03/09 05:13:16;;;;;;;3.25;2.40;;;22.60;48.60;;;;;;5074271;28;20052;-44
2021/03/09 05:15:43;;;;;;;2.97;2.38;;;22.60;48.60;;;;;;5074268;28;20056;-44
2021/03/09 05:18:10;;;;;;;3.20;2.28;;;22.60;48.60;;;;;;5073455;28;20048;-46
2021/03/09 05:20:38;;;;;;;2.92;2.10;;;22.60;48.60;;;;;;5073778;28;20055;-45
2021/03/09 05:23:04;;;;;;;3.03;2.20;;;22.60;48.60;;;;;;5073683;28;20492;-43
2021/03/09 05:25:31;;;;;;;2.90;1.98;;;22.60;48.60;;;;;;5073274;28;20400;-48
2021/03/09 05:27:58;;;;;;;2.88;2.22;;;22.60;48.60;;;;;;5073848;28;20106;-45
2021/03/09 05:30:25;;;;;;;2.72;2.17;;;22.60;48.60;;;;;;5073936;28;20408;-45
2021/03/09 05:32:52;;;;;;;2.40;2.08;;;22.60;48.70;;;;;;5072239;28;20059;-43
2021/03/09 05:35:20;;;;;;;3.60;2.25;;;22.60;48.60;;;;;;5073254;28;20234;-43
2021/03/09 05:37:47;;;;;;;3.00;2.05;;;22.60;48.60;;;;;;5073659;28;20064;-46
2021/03/09 05:40:16;;;;;;;2.78;2.08;;;22.60;48.60;;;;;;5072910;28;20445;-43
2021/03/09 05:42:51;;;;;;;2.90;2.60;;;22.60;48.70;;;;;;5073603;28;20105;-43
2021/03/09 05:45:19;;;;;;;2.42;2.10;;;22.60;48.60;;;;;;5073768;28;20045;-43
2021/03/09 05:47:46;;;;;;;2.65;2.38;;;22.60;48.60;;;;;;5072523;28;20048;-43
2021/03/09 05:50:14;;;;;;;3.22;2.25;;;22.60;48.60;;;;;;5072913;28;20133;-43
2021/03/09 05:52:41;;;;;;;2.97;2.22;;;22.60;48.60;;;;;;5073284;28;20044;-44
2021/03/09 05:55:12;;;;;;;3.10;2.17;;;22.60;48.60;;;;;;5072975;28;20055;-44
2021/03/09 05:57:38;;;;;;;2.70;2.28;;;22.60;48.60;;;;;;5073521;28;20102;-43
2021/03/09 06:00:08;;;;;;;2.95;2.47;;;22.60;48.60;;;;;;5073845;28;20106;-43
2021/03/09 06:02:35;;;;;;;3.13;2.30;;;22.60;48.60;;;;;;5073445;28;20094;-49
2021/03/09 06:05:07;;;;;;;2.60;2.20;;;22.60;48.60;;;;;;5072230;28;20058;-43
2021/03/09 06:07:37;;;;;;;2.90;2.17;;;22.60;48.60;;;;;;5073053;28;20040;-43
2021/03/09 06:10:06;;;;;;;2.85;2.33;;;22.60;48.60;;;;;;5072537;28;20492;-44
2021/03/09 06:12:33;;;;;;;3.20;2.35;;;22.60;48.60;;;;;;5073309;28;20106;-45
2021/03/09 06:15:05;;;;;;;3.13;2.15;;;22.60;48.60;;;;;;5073010;28;20106;-42
2021/03/09 06:17:32;;;;;;;2.55;2.20;;;22.60;48.60;;;;;;5073271;28;20411;-48
2021/03/09 06:20:17;;;;;;;2.47;2.20;;;22.60;48.60;;;;;;5072683;28;20048;-44
2021/03/09 06:22:58;;;;;;;2.75;2.08;;;22.60;48.60;;;;;;5073231;28;20045;-44
2021/03/09 06:25:32;;;;;;;2.97;2.20;;;22.60;48.60;;;;;;5072484;28;20507;-44
2021/03/09 06:28:04;;;;;;;2.72;2.38;;;22.60;48.60;;;;;;5073448;28;20078;-43
2021/03/09 06:30:36;;;;;;;3.00;2.33;;;22.60;48.60;;;;;;5072767;28;20041;-43
2021/03/09 06:33:04;;;;;;;2.47;2.28;;;22.60;48.60;;;;;;5072774;28;20136;-45
2021/03/09 06:35:38;;;;;;;3.28;2.28;;;22.60;48.60;;;;;;5072015;28;20573;-44
2021/03/09 06:38:19;;;;;;;2.53;2.33;;;22.60;48.60;;;;;;5072567;28;20056;-43
2021/03/09 06:41:18;;;;;;;3.65;2.72;;;22.60;48.50;;;;;;5072112;28;20045;-43
2021/03/09 06:43:58;;;;;;;3.80;2.67;;;22.60;48.60;;;;;;5072668;28;20040;-44
2021/03/09 06:46:24;;;;;;;3.25;2.60;;;22.60;48.50;;;;;;5076815;28;20507;-43
2021/03/09 06:48:55;;;;;;;2.22;2.00;;;22.60;48.50;;;;;;5076128;28;20492;-45
2021/03/09 06:51:30;;;;;;;3.03;2.40;;;22.60;48.50;;;;;;5075967;28;20475;-43
2021/03/09 06:54:04;;;;;;;3.00;2.20;;;22.60;48.50;;;;;;5077009;28;20052;-44
2021/03/09 06:56:32;;;;;;;2.92;2.22;;;22.60;48.50;;;;;;5076062;28;20517;-43
2021/03/09 06:59:16;;;;;;;3.08;2.40;;;22.60;48.50;;;;;;5076906;28;20105;-43
2021/03/09 07:01:43;;;;;;;2.85;2.10;;;22.60;48.50;;;;;;5076541;28;20056;-44
2021/03/09 07:04:21;;;;;;;2.70;2.10;;;22.60;48.50;;;;;;5074337;28;20052;-45
2021/03/09 07:06:48;;;;;;;2.90;2.20;;;22.60;48.50;;;;;;5076521;28;20040;-43
2021/03/09 07:09:14;;;;;;;3.22;2.35;;;22.60;48.50;;;;;;5075437;28;20044;-45
2021/03/09 07:11:44;;;;;;;2.83;2.40;;;22.60;48.50;;;;;;5075859;28;20063;-43
2021/03/09 07:14:13;;;;;;;3.15;2.50;;;22.70;48.60;;;;;;5076570;28;20044;-44
2021/03/09 07:16:46;;;;;;;2.72;2.38;;;22.60;48.50;;;;;;5076593;28;20416;-43
2021/03/09 07:19:16;;;;;;;2.83;2.20;;;22.60;48.50;;;;;;5075890;28;20482;-43
2021/03/09 07:21:43;;;;;;;3.42;2.45;;;22.70;48.50;;;;;;5076008;28;20048;-44
2021/03/09 07:24:12;;;;;;;2.97;2.38;;;22.70;48.50;;;;;;5075969;28;20526;-42
2021/03/09 07:26:40;;;;;;;3.45;2.55;;;22.70;48.50;;;;;;5075598;28;20041;-45
2021/03/09 07:29:12;;;;;;;2.70;2.22;;;22.70;48.50;;;;;;5074735;28;20052;-43
2021/03/09 07:31:41;;;;;;;3.00;2.50;;;22.70;48.50;;;;;;5074783;28;20098;-43
2021/03/09 07:34:09;;;;;;;2.85;2.35;;;22.70;48.50;;;;;;5076714;28;20484;-43
2021/03/09 07:36:37;;;;;;;3.17;2.53;;;22.70;48.50;;;;;;5075193;28;20052;-44
2021/03/09 07:39:04;;;;;;;3.17;2.40;;;22.70;48.50;;;;;;5074960;28;20492;-43
2021/03/09 07:41:32;;;;;;;3.15;2.50;;;22.70;48.50;;;;;;5074230;28;20056;-48
2021/03/09 07:43:59;;;;;;;2.53;2.22;;;22.70;48.50;;;;;;5074328;28;20484;-44
2021/03/09 07:46:26;;;;;;;2.60;2.40;;;22.70;48.50;;;;;;5074804;28;20461;-45
2021/03/09 07:49:13;;;;;;;3.55;2.40;;;22.70;48.50;;;;;;5074742;28;20046;-43
2021/03/09 07:52:21;;;;;;;2.95;2.25;;;22.70;48.40;;;;;;5074287;28;20507;-46
2021/03/09 07:55:05;;;;;;;2.75;2.40;;;22.70;48.40;;;;;;5074348;28;20054;-47
2021/03/09 07:58:09;;;;;;;3.40;2.40;;;22.70;48.50;;;;;;5073734;28;20098;-48
2021/03/09 08:01:03;;;;;;;3.28;2.40;;;22.70;48.50;;;;;;5074525;28;20155;-47
2021/03/09 08:03:47;;;;;;;2.80;2.33;;;22.70;48.50;;;;;;5073347;28;20456;-46
2021/03/09 08:06:42;;;;;;;2.83;2.45;;;22.70;48.50;;;;;;5073507;28;20094;-45
2021/03/09 08:09:38;;;;;;;2.47;2.13;;;22.70;48.50;;;;;;5074491;28;20039;-44
2021/03/09 08:12:24;;;;;;;3.25;2.40;;;22.70;48.50;;;;;;5073500;28;20063;-43
2021/03/09 08:15:20;;;;;;;3.47;2.47;;;22.70;48.50;;;;;;5074103;28;20509;-51
2021/03/09 08:17:47;;;;;;;2.90;2.58;;;22.70;48.50;;;;;;5074218;28;20048;-48
2021/03/09 08:20:48;;;;;;;3.45;2.72;;;22.70;48.50;;;;;;5073489;28;20449;-44
2021/03/09 08:23:49;;;;;;;2.90;2.45;;;22.70;48.50;;;;;;5032009;28;20053;-43
2021/03/09 08:26:22;;;;;;;3.22;2.42;;;22.70;48.50;;;;;;4934199;29;20048;-49
2021/03/09 08:28:52;;;;;;;2.83;2.40;;;22.80;48.50;;;;;;4934662;29;20131;-45
2021/03/09 08:31:19;;;;;;;3.92;2.33;;;22.70;48.40;;;;;;4934481;29;20059;-43
2021/03/09 08:33:54;;;;;;;3.80;2.40;;;22.70;48.40;;;;;;4934829;29;20126;-43
2021/03/09 08:36:24;;;;;;;2.78;2.17;;;22.70;48.40;;;;;;4933724;29;20440;-47
2021/03/09 08:39:11;;;;;;;2.70;2.33;;;22.70;48.30;;;;;;4910960;29;700207;-45
2021/03/09 08:41:38;;;;;;;3.40;2.50;;;22.80;48.40;;;;;;4934586;29;20480;-44
2021/03/09 08:44:18;;;;;;;3.05;2.28;;;22.70;48.40;;;;;;4935280;29;20543;-46
2021/03/09 08:47:03;;;;;;;2.50;2.13;;;22.80;48.40;;;;;;4935407;29;20047;-45
2021/03/09 08:49:37;;;;;;;3.05;2.53;;;22.80;48.40;;;;;;4935612;29;20132;-45
2021/03/09 08:52:06;;;;;;;2.47;2.28;;;22.80;48.40;;;;;;4934595;29;20051;-44
2021/03/09 08:54:38;;;;;;;3.63;2.67;;;22.80;48.40;;;;;;4935798;29;20381;-47
2021/03/09 08:57:13;;;;;;;3.65;2.55;;;22.80;48.40;;;;;;4935224;29;20048;-43
2021/03/09 08:59:42;;;;;;;3.13;2.22;;;22.80;48.40;;;;;;4967676;28;20050;-43
2021/03/09 09:02:17;;;;;;;2.67;2.30;;;22.80;48.40;;;;;;5038404;28;20462;-44
2021/03/09 09:04:58;;;;;;;3.20;2.42;;;22.80;48.30;;;;;;5073943;28;20040;-43
2021/03/09 09:07:39;;;;;;;3.25;2.45;;;22.80;48.30;;;;;;5073048;28;20052;-47
2021/03/09 09:10:15;;;;;;;2.83;2.45;;;22.80;48.30;;;;;;5073795;28;20135;-47
2021/03/09 09:12:43;;;;;;;3.00;2.20;;;22.80;48.40;;;;;;5073400;28;20398;-45
2021/03/09 09:15:23;;;;;;;3.42;2.50;;;22.80;48.30;;;;;;5073995;28;20051;-45
2021/03/09 09:18:05;;;;;;;3.05;2.22;;;22.80;48.30;;;;;;5074119;28;20052;-49
2021/03/09 09:20:41;;;;;;;3.30;2.50;;;22.80;48.30;;;;;;5073069;28;20056;-44
2021/03/09 09:23:13;;;;;;;3.08;2.40;;;22.80;48.30;;;;;;5073816;28;20064;-43
2021/03/09 09:25:44;;;;;;;2.75;2.40;;;22.80;48.20;;;;;;5074651;28;20098;-45
2021/03/09 09:28:43;;;;;;;3.00;2.50;;;22.80;48.20;;;;;;5071661;28;20048;-45
2021/03/09 09:31:19;;;;;;;4.07;2.78;;;22.80;48.20;;;;;;5073257;28;20559;-43
2021/03/09 09:33:51;;;;;;;3.00;2.42;;;22.80;48.20;;;;;;5073743;28;20079;-43
2021/03/09 09:36:23;;;;;;;3.80;2.40;;;22.80;48.20;;;;;;5072696;28;20496;-43
2021/03/09 09:38:54;;;;;;;3.15;2.45;;;22.80;48.20;;;;;;5073188;28;20127;-49
2021/03/09 09:41:22;;;;;;;2.72;2.20;;;22.80;48.20;;;;;;5072555;28;20098;-46
2021/03/09 09:43:49;;;;;;;2.97;2.35;;;22.80;48.20;;;;;;5072502;28;20102;-43
2021/03/09 09:46:27;;;;;;;3.15;2.53;;;22.80;48.20;;;;;;5073106;28;20052;-48
2021/03/09 09:48:56;;;;;;;2.55;2.08;;;22.80;48.20;;;;;;5073240;28;20467;-43
2021/03/09 09:51:25;;;;;;;2.80;2.50;;;22.80;48.20;;;;;;5072925;28;20052;-46
2021/03/09 09:53:53;;;;;;;2.97;2.22;;;22.80;48.10;;;;;;5073778;28;20056;-48
2021/03/09 09:56:20;;;;;;;3.33;2.53;;;22.80;48.10;;;;;;5073543;28;20052;-48
2021/03/09 09:58:54;;;;;;;3.75;2.75;;;22.90;48.20;;;;;;5073230;28;20102;-44
2021/03/09 10:01:22;;;;;;;3.13;2.50;;;22.90;48.10;;;;;;5073029;28;20060;-45
2021/03/09 10:03:53;;;;;;;5.55;2.67;;;22.80;48.00;;;;;;5071757;28;20051;-43
2021/03/09 10:06:20;;;;;;;3.35;2.50;;;22.80;48.00;;;;;;5072438;28;20044;-45
2021/03/09 10:08:47;;;;;;;5.68;2.83;;;22.90;48.10;;;;;;5073437;28;20404;-43
2021/03/09 10:11:14;;;;;;;3.30;2.75;;;22.90;48.00;;;;;;5073041;28;20044;-44
2021/03/09 10:13:41;;;;;;;3.63;2.45;;;22.90;48.10;;;;;;5072389;28;20055;-46
2021/03/09 10:16:08;;;;;;;7.72;3.22;;;22.80;48.00;;;;;;5073246;28;20049;-43
2021/03/09 10:18:36;;;;;;;5.10;2.60;;;22.90;48.00;;;;;;5073184;28;20052;-44
2021/03/09 10:21:10;;;;;;;5.13;2.63;;;22.90;48.00;;;;;;5071726;28;20086;-43
2021/03/09 10:24:00;;;;;;;8.68;2.95;;;22.90;48.00;;;;;;5072360;28;20071;-44
2021/03/09 10:26:32;;;;;;;11.55;2.88;;;22.90;48.00;;;;;;5073148;28;20048;-43
2021/03/09 10:29:01;;;;;;;6.55;2.53;;;22.90;48.00;;;;;;5072405;28;20511;-43
2021/03/09 10:31:43;;;;;;;7.70;2.67;;;22.90;48.00;;;;;;5072654;28;20059;-44
2021/03/09 10:34:11;;;;;;;4.53;2.95;;;22.90;47.90;;;;;;5072837;28;20091;-43
2021/03/09 10:36:53;;;;;;;4.13;2.55;;;22.90;47.90;;;;;;5070641;28;20094;-43
2021/03/09 10:39:22;;;;;;;4.93;2.38;;;22.90;47.90;;;;;;5072604;28;20083;-47
2021/03/09 10:41:49;;;;;;;12.55;3.03;;;22.90;47.90;;;;;;5072583;28;20049;-43
2021/03/09 10:44:26;;;;;;;6.15;3.05;;;22.90;47.90;;;;;;5072164;28;20048;-43
2021/03/09 10:46:53;;;;;;;10.75;3.20;;;22.90;47.90;;;;;;5071426;28;20056;-43
2021/03/09 10:49:21;;;;;;;6.57;2.83;;;22.90;47.90;;;;;;5071393;28;20041;-43
2021/03/09 10:51:53;;;;;;;6.10;3.10;;;22.90;47.90;;;;;;5072426;28;20075;-43
2021/03/09 10:54:20;;;;;;;10.43;2.90;;;22.90;47.80;;;;;;5072882;28;20420;-43
2021/03/09 10:56:47;;;;;;;11.02;3.15;;;22.90;47.80;;;;;;5072609;28;20052;-44
2021/03/09 10:59:14;;;;;;;10.10;3.38;;;22.90;47.90;;;;;;5071757;28;20048;-43
2021/03/09 11:01:40;;;;;;;5.75;2.60;;;22.90;47.80;;;;;;5072742;28;20060;-43
2021/03/09 11:04:07;;;;;;;8.23;3.05;;;22.90;47.80;;;;;;5072453;28;20056;-45
2021/03/09 11:06:34;;;;;;;12.80;2.70;;;22.90;47.80;;;;;;5072234;28;20488;-45
2021/03/09 11:09:00;;;;;;;13.32;3.13;;;22.90;47.80;;;;;;5071709;28;20045;-43
2021/03/09 11:11:27;;;;;;;20.17;3.45;;;22.90;47.80;;;;;;5072732;28;20049;-46
2021/03/09 11:13:54;;;;;;;7.28;3.10;;;22.90;47.80;;;;;;5072008;28;20056;-43
2021/03/09 11:16:20;;;;;;;10.05;3.33;;;22.90;47.80;;;;;;5072391;28;20049;-45
2021/03/09 11:18:47;;;;;;;11.32;3.30;;;22.90;47.80;;;;;;5072302;28;20128;-45
2021/03/09 11:21:14;;;;;;;7.00;3.20;;;23.00;47.80;;;;;;5072485;28;20078;-43
2021/03/09 11:23:41;;;;;;;13.23;3.22;;;23.00;47.80;;;;;;5071869;28;20071;-44
2021/03/09 11:26:07;;;;;;;7.13;2.90;;;23.00;47.90;;;;;;5072179;28;20041;-44
2021/03/09 11:28:34;;;;;;;8.55;2.88;;;23.00;47.80;;;;;;5071367;28;20056;-43
2021/03/09 11:31:02;;;;;;;11.00;3.33;;;23.00;47.80;;;;;;5073969;28;20129;-43
2021/03/09 11:33:29;;;;;;;5.32;3.00;;;23.00;47.80;;;;;;5076101;28;20052;-48
2021/03/09 11:35:55;;;;;;;9.50;2.60;;;23.00;47.90;;;;;;5075860;28;20055;-49
2021/03/09 11:38:22;;;;;;;7.78;2.75;;;23.00;47.90;;;;;;5075040;28;20052;-50
2021/03/09 11:40:49;;;;;;;10.23;3.08;;;23.00;47.90;;;;;;5076109;28;20048;-51
2021/03/09 11:43:15;;;;;;;7.13;2.95;;;23.00;47.80;;;;;;5075696;28;20055;-46
2021/03/09 11:45:42;;;;;;;10.18;3.28;;;23.00;47.90;;;;;;5075227;28;20094;-46
2021/03/09 11:48:09;;;;;;;8.68;3.13;;;23.00;47.80;;;;;;5075528;28;20101;-44
2021/03/09 11:50:37;;;;;;;12.30;3.13;;;23.00;47.80;;;;;;5075633;28;20102;-47
2021/03/09 11:53:04;;;;;;;8.68;2.95;;;23.00;47.90;;;;;;5074794;28;20040;-46
2021/03/09 11:55:43;;;;;;;8.00;2.88;;;23.00;47.80;;;;;;5074634;28;20450;-44
2021/03/09 11:58:09;;;;;;;7.80;3.38;;;23.00;47.90;;;;;;5075345;28;20102;-49
2021/03/09 12:00:37;;;;;;;8.02;2.92;;;23.00;47.90;;;;;;5074627;28;20055;-47
2021/03/09 12:03:04;;;;;;;4.60;2.90;;;23.00;47.80;;;;;;5075468;28;20482;-47
2021/03/09 12:05:31;;;;;;;6.25;2.55;;;23.00;47.90;;;;;;5074918;28;20045;-43
2021/03/09 12:07:58;;;;;;;8.73;3.55;;;23.00;47.80;;;;;;5074348;28;20045;-45
2021/03/09 12:10:24;;;;;;;16.45;3.22;;;23.00;47.80;;;;;;5075136;28;20048;-44
2021/03/09 12:12:51;;;;;;;10.43;3.35;;;23.00;47.80;;;;;;5075188;28;20086;-43
2021/03/09 12:15:18;;;;;;;7.13;2.65;;;23.00;47.90;;;;;;5074389;28;20045;-43
2021/03/09 12:17:44;;;;;;;7.53;3.00;;;23.00;47.90;;;;;;5075082;28;20048;-44
2021/03/09 12:20:12;;;;;;;4.45;2.35;;;23.00;47.90;;;;;;5075367;28;20048;-44
2021/03/09 12:22:38;;;;;;;10.18;3.00;;;23.00;47.90;;;;;;5074972;28;20056;-44
2021/03/09 12:25:06;;;;;;;8.73;3.08;;;23.00;47.90;;;;;;5074237;28;20488;-47
2021/03/09 12:27:35;;;;;;;9.45;3.20;;;23.00;47.90;;;;;;5075241;28;20169;-44
2021/03/09 12:30:05;;;;;;;12.38;3.20;;;23.00;47.90;;;;;;5074186;28;20044;-43
2021/03/09 12:32:32;;;;;;;9.73;3.00;;;23.00;47.90;;;;;;5073988;28;20044;-43
2021/03/09 12:34:59;;;;;;;9.45;2.92;;;23.00;47.90;;;;;;5073760;28;20048;-44
2021/03/09 12:37:26;;;;;;;11.82;3.17;;;23.00;47.90;;;;;;5074566;28;20053;-43
2021/03/09 12:39:54;;;;;;;7.93;3.08;;;23.00;47.90;;;;;;5074309;28;20415;-43
2021/03/09 12:42:21;;;;;;;11.70;2.97;;;23.00;47.90;;;;;;5073774;28;20049;-43
2021/03/09 12:44:47;;;;;;;7.63;3.05;;;23.00;47.90;;;;;;5074128;28;20377;-44
2021/03/09 12:47:14;;;;;;;9.63;3.10;;;23.00;47.90;;;;;;5074855;28;20090;-43
2021/03/09 12:49:40;;;;;;;7.25;2.55;;;23.00;47.90;;;;;;5074640;28;20489;-43
2021/03/09 12:52:08;;;;;;;6.00;2.80;;;23.00;47.90;;;;;;5074739;28;20342;-43
2021/03/09 12:54:35;;;;;;;10.13;3.05;;;23.00;47.90;;;;;;5073933;28;20086;-44
2021/03/09 12:57:02;;;;;;;8.48;2.90;;;23.00;47.90;;;;;;5074431;28;20147;-45
2021/03/09 12:59:33;;;;;;;4.38;2.58;;;23.00;47.90;;;;;;5073978;28;20056;-46
2021/03/09 13:02:00;;;;;;;8.55;3.30;;;23.00;47.90;;;;;;5074325;28;20496;-44
2021/03/09 13:04:28;;;;;;;5.10;2.53;;;23.00;47.90;;;;;;5074012;28;20041;-45